Bristol, Tennessee
Current Conditions -  °F | °C
As of 6:55 PM on Saturday 25 Oct 2014 (Local Time) from KVJI Reporting Station
Broken Clouds Broken Clouds  
Wind Chill: 62°   Ceiling: 4300
Heat Index: 62°   Visibility: 10mi
Dew Point: 47°   Wind: 3mph
Humidity: 59%   Direction: 280°W
Pressure: 30.01"   Gusts: NA
Location:  36.59°N, 82.22°W
Report Text: KVJI 252255Z AUTO 28003KT 10SM BKN043 BKN048 17/09 A3001 RMK AO2 T01650085
Loading
Personal Weather Stations






























Interactive Weather Map
Tropical Storm Tracking
New forecast layout! Learn more

10-Day Weather Forecast

Advertisements
Track Severe Weather on mobile